Strona główna
METAR-TAF:

METAR-TAF

Lotnisko :

Mason Jewett Field

Mason, Michigan, Stany Zjednoczone

Szerokość geograficzna: 42-33-57N, Długość geograficzna: 084-25-24W, wysokość: 280 m

Aktualna obserwacja pogody

Raport powstał 23 minut temu, godzina 18:58 UTC
Wiatr 9 kt od południowo-południowy wschód
Temperatura 26°C
Wilgotność 84%
Ciśnienie 1011 hPa
Widzialność: 16.1 km
Rozproszone chmury na wysokości 12000 ft

METAR: KTEW 181858Z AUTO 15009KT 10SM SCT120 26/23 A2986 RMK AO2 T02570228

czas: 15:21 (19:21 UTC)


TAF: brakujący

Obserwacja i prognoza pogody dla ponad 4000 lotnisk (raport METAR i TAF).

Dostępne stacje oznaczono żółtymi i czerwonymi punktami na mapie.

Najedź kursorem aby zobaczyć nazwę stacji.

Kliknij aby zobaczyć obserwacje i prognozy pogody.

Aby zmienić mapę: kliknij na zielony przycisk z czarnym krzyżykiem, aby powiększyć; na zielony przycisk z myślnikiem, aby pomniejszyć; na zielone strzałki, aby przejść do map sąsiednich.


METAR-TAF: